Time;durP1;ratioP1;P1;durP2;ratioP2;P2;SDS_P1;SDS_P2;PMS_P1;PMS_P2;Temp;Humidity;BMP_temperature;BMP_pressure;BME280_temperature;BME280_humidity;BME280_pressure;Samples;Min_cycle;Max_cycle;Signal;HPM_P1;HPM_P2
2022/12/12 00:00:19;;;;;;;27.92;12.57;;;0.80;99.90;;;;;;5069024;28;20037;-65
2022/12/12 00:02:44;;;;;;;29.63;13.25;;;0.80;99.90;;;;;;5068085;28;20063;-65
2022/12/12 00:05:16;;;;;;;27.88;12.65;;;0.80;99.90;;;;;;5066319;28;20060;-65
2022/12/12 00:07:41;;;;;;;25.43;13.27;;;0.70;99.90;;;;;;5078101;28;20027;-65
2022/12/12 00:10:08;;;;;;;25.83;12.30;;;0.80;99.90;;;;;;5067339;28;20033;-66
2022/12/12 00:12:34;;;;;;;29.67;13.52;;;0.70;99.90;;;;;;5073528;28;20028;-66
2022/12/12 00:15:00;;;;;;;24.02;12.07;;;0.70;99.90;;;;;;5065389;28;20067;-65
2022/12/12 00:17:26;;;;;;;25.88;12.73;;;0.70;99.90;;;;;;5065462;28;20024;-65
2022/12/12 00:19:52;;;;;;;28.55;12.88;;;0.70;99.90;;;;;;5069483;28;20036;-65
2022/12/12 00:22:18;;;;;;;28.45;14.02;;;0.70;99.90;;;;;;5068378;28;20037;-65
2022/12/12 00:24:43;;;;;;;26.98;12.32;;;0.70;99.90;;;;;;5069284;28;20075;-65
2022/12/12 00:27:09;;;;;;;23.30;11.35;;;0.70;99.90;;;;;;5066079;28;20035;-65
2022/12/12 00:29:35;;;;;;;24.20;12.43;;;0.70;99.90;;;;;;5068675;28;20028;-65
2022/12/12 00:32:01;;;;;;;25.08;12.38;;;0.70;99.90;;;;;;5057972;28;20103;-65
2022/12/12 00:34:26;;;;;;;23.55;12.38;;;0.80;99.90;;;;;;5072198;28;20016;-65
2022/12/12 00:36:52;;;;;;;33.35;14.13;;;0.80;99.90;;;;;;5074228;28;20375;-65
2022/12/12 00:39:18;;;;;;;25.58;12.52;;;0.80;99.90;;;;;;5067824;28;20033;-66
2022/12/12 00:41:44;;;;;;;25.50;12.45;;;0.70;99.90;;;;;;5071938;28;20063;-65
2022/12/12 00:44:11;;;;;;;27.45;12.60;;;0.80;99.90;;;;;;5065033;28;20032;-65
2022/12/12 00:46:38;;;;;;;27.80;11.82;;;0.70;99.90;;;;;;5069654;28;20100;-65
2022/12/12 00:49:03;;;;;;;25.58;12.07;;;0.70;99.90;;;;;;5069037;28;20025;-65
2022/12/12 00:51:30;;;;;;;26.40;12.02;;;0.70;99.90;;;;;;5069577;28;20036;-65
2022/12/12 00:53:57;;;;;;;28.40;12.25;;;0.70;99.90;;;;;;5073100;28;20024;-65
2022/12/12 00:56:24;;;;;;;24.27;11.82;;;0.70;99.90;;;;;;5069738;28;20033;-65
2022/12/12 00:58:51;;;;;;;27.50;12.43;;;0.70;99.90;;;;;;5074890;28;20020;-64
2022/12/12 01:01:28;;;;;;;26.13;13.77;;;0.80;99.90;;;;;;5072601;28;20060;-64
2022/12/12 01:03:55;;;;;;;28.60;12.35;;;0.80;99.90;;;;;;5071834;28;20124;-64
2022/12/12 01:06:22;;;;;;;30.35;14.00;;;0.70;99.90;;;;;;5072328;28;20067;-64
2022/12/12 01:08:48;;;;;;;29.70;13.27;;;0.80;99.90;;;;;;5076350;28;20058;-64
2022/12/12 01:11:15;;;;;;;34.35;14.60;;;0.80;99.90;;;;;;5076394;28;20028;-65
2022/12/12 01:13:43;;;;;;;33.60;14.68;;;0.70;99.90;;;;;;5076554;28;20043;-64
2022/12/12 01:16:09;;;;;;;30.88;12.73;;;0.70;99.90;;;;;;5068793;28;20048;-64
2022/12/12 01:18:36;;;;;;;36.13;15.88;;;0.70;99.90;;;;;;5081028;28;20029;-64
2022/12/12 01:21:02;;;;;;;32.42;14.55;;;0.70;99.90;;;;;;5072481;28;20036;-65
2022/12/12 01:23:28;;;;;;;64.90;25.55;;;0.70;99.90;;;;;;5068058;28;20045;-65
2022/12/12 01:26:02;;;;;;;28.27;13.55;;;0.80;99.90;;;;;;5063716;28;20031;-65
2022/12/12 01:28:28;;;;;;;29.08;13.88;;;0.70;99.90;;;;;;5068428;28;20052;-65
2022/12/12 01:30:54;;;;;;;36.35;14.20;;;0.80;99.90;;;;;;5066633;28;20531;-64
2022/12/12 01:33:19;;;;;;;31.60;13.52;;;0.80;99.90;;;;;;5070810;28;20024;-65
2022/12/12 01:35:45;;;;;;;28.60;13.60;;;0.80;99.90;;;;;;5070182;28;20039;-65
2022/12/12 01:38:11;;;;;;;36.10;15.02;;;0.80;99.90;;;;;;5073713;28;20480;-65
2022/12/12 01:40:37;;;;;;;32.35;13.75;;;0.80;99.90;;;;;;5070518;28;20066;-64
2022/12/12 01:43:09;;;;;;;36.72;14.60;;;0.80;99.90;;;;;;5072075;28;20459;-65
2022/12/12 01:46:02;;;;;;;30.65;13.95;;;0.80;99.90;;;;;;5069138;28;20028;-66
2022/12/12 01:48:30;;;;;;;37.85;15.48;;;0.80;99.90;;;;;;5080468;28;20349;-65
2022/12/12 01:51:00;;;;;;;29.27;13.38;;;0.80;99.90;;;;;;5072262;28;20024;-65
2022/12/12 01:53:28;;;;;;;31.88;12.68;;;0.80;99.90;;;;;;5075137;28;20024;-64
2022/12/12 01:55:56;;;;;;;32.83;13.18;;;0.80;99.90;;;;;;5071514;28;20025;-64
2022/12/12 01:58:23;;;;;;;33.55;13.63;;;0.80;99.90;;;;;;5073360;28;20046;-65
2022/12/12 02:00:48;;;;;;;30.20;12.57;;;0.70;99.90;;;;;;5078824;28;20487;-65
2022/12/12 02:03:14;;;;;;;28.02;12.02;;;0.80;99.90;;;;;;5069805;28;20077;-65
2022/12/12 02:05:52;;;;;;;28.52;12.80;;;0.80;99.90;;;;;;5071905;28;20098;-64
2022/12/12 02:08:20;;;;;;;26.60;12.20;;;0.80;99.90;;;;;;5065265;28;20107;-65
2022/12/12 02:10:47;;;;;;;26.00;12.52;;;0.80;99.90;;;;;;5070172;28;20456;-65
2022/12/12 02:13:19;;;;;;;23.30;10.68;;;0.80;99.90;;;;;;5068779;28;20024;-64
2022/12/12 02:16:01;;;;;;;23.27;11.13;;;0.80;99.90;;;;;;5073075;28;20036;-64
2022/12/12 02:18:33;;;;;;;25.38;10.40;;;0.80;99.90;;;;;;5062656;28;20020;-64
2022/12/12 02:21:39;;;;;;;16.58;7.47;;;0.80;99.90;;;;;;5068721;28;20120;-65
2022/12/12 02:24:19;;;;;;;17.45;8.43;;;0.80;99.90;;;;;;5053607;28;20484;-64
2022/12/12 02:27:11;;;;;;;16.92;8.00;;;0.80;99.90;;;;;;5079877;28;20052;-65
2022/12/12 02:29:58;;;;;;;17.60;8.43;;;0.70;99.90;;;;;;5063855;28;20028;-65
2022/12/12 02:32:33;;;;;;;18.42;8.27;;;0.70;99.90;;;;;;5067698;28;20107;-64
2022/12/12 02:35:09;;;;;;;18.30;7.93;;;0.70;99.90;;;;;;5070959;28;20040;-64
2022/12/12 02:38:12;;;;;;;17.52;8.82;;;0.80;99.90;;;;;;5061979;28;20480;-65
2022/12/12 02:40:56;;;;;;;17.88;8.95;;;0.80;99.90;;;;;;5068341;28;20033;-65
2022/12/12 02:43:35;;;;;;;21.13;9.25;;;0.80;99.90;;;;;;5069525;28;20035;-65
2022/12/12 02:46:10;;;;;;;20.20;10.13;;;0.80;99.90;;;;;;5068396;28;20027;-65
2022/12/12 02:48:41;;;;;;;20.17;10.07;;;0.80;99.90;;;;;;5064972;28;20078;-65
2022/12/12 02:51:10;;;;;;;22.65;10.23;;;0.80;99.90;;;;;;5068834;28;20036;-64
2022/12/12 02:53:36;;;;;;;21.83;10.15;;;0.80;99.90;;;;;;5087985;28;20028;-64
2022/12/12 02:56:08;;;;;;;23.33;10.30;;;0.80;99.90;;;;;;5071492;28;20059;-66
2022/12/12 02:58:37;;;;;;;22.48;10.80;;;0.80;99.90;;;;;;5073267;28;20058;-64
2022/12/12 03:01:44;;;;;;;22.63;10.32;;;0.80;99.90;;;;;;5074410;28;20040;-65
2022/12/12 03:10:34;;;;;;;19.67;9.00;;;0.70;99.90;;;;;;5026679;28;20052;-64
2022/12/12 03:13:20;;;;;;;21.05;9.75;;;0.70;99.90;;;;;;5028881;28;20051;-64
2022/12/12 03:16:05;;;;;;;20.50;10.10;;;0.70;99.90;;;;;;5028525;28;20049;-64
2022/12/12 03:18:59;;;;;;;21.17;9.10;;;0.70;99.90;;;;;;5028034;28;20062;-66
2022/12/12 03:21:40;;;;;;;20.25;9.23;;;0.70;99.90;;;;;;5024842;28;20164;-67
2022/12/12 03:24:55;;;;;;;18.73;9.77;;;0.70;99.90;;;;;;5026771;28;20146;-64
2022/12/12 03:27:36;;;;;;;20.58;9.80;;;0.70;99.90;;;;;;5028818;28;20044;-66
2022/12/12 03:30:07;;;;;;;18.00;8.80;;;0.70;99.90;;;;;;5030437;28;20068;-64
2022/12/12 03:32:48;;;;;;;18.55;9.38;;;0.60;99.90;;;;;;5030947;28;20041;-66
2022/12/12 03:35:40;;;;;;;17.40;8.82;;;0.60;99.90;;;;;;5025835;28;20416;-64
2022/12/12 03:38:13;;;;;;;15.93;8.38;;;0.60;99.90;;;;;;5018096;28;20036;-65
2022/12/12 03:40:49;;;;;;;13.20;7.57;;;0.60;99.90;;;;;;5039585;28;20040;-65
2022/12/12 03:43:23;;;;;;;15.48;8.68;;;0.60;99.90;;;;;;5066453;28;20020;-64
2022/12/12 03:45:59;;;;;;;14.95;8.18;;;0.60;99.90;;;;;;5072637;28;20108;-64
2022/12/12 03:48:29;;;;;;;15.15;8.65;;;0.60;99.90;;;;;;5068090;28;20064;-65
2022/12/12 03:51:03;;;;;;;16.15;8.95;;;0.60;99.90;;;;;;5071113;28;20032;-65
2022/12/12 03:53:56;;;;;;;15.82;8.10;;;0.60;99.90;;;;;;5069471;28;20036;-65
2022/12/12 03:56:37;;;;;;;15.63;8.85;;;0.60;99.90;;;;;;5060822;28;20028;-65
2022/12/12 03:59:13;;;;;;;17.30;8.40;;;0.60;99.90;;;;;;5071455;28;20399;-65
2022/12/12 04:01:57;;;;;;;15.30;7.22;;;0.60;99.90;;;;;;5069853;28;20044;-64
2022/12/12 04:04:52;;;;;;;12.60;6.50;;;0.60;99.90;;;;;;5071433;28;20576;-64
2022/12/12 04:07:27;;;;;;;14.30;7.30;;;0.60;99.90;;;;;;5063523;28;20404;-64
2022/12/12 04:12:58;;;;;;;13.38;7.80;;;0.50;99.90;;;;;;5061971;28;20380;-64
2022/12/12 04:15:39;;;;;;;14.05;7.82;;;0.60;99.90;;;;;;5068077;28;20047;-64
2022/12/12 04:18:29;;;;;;;12.93;7.97;;;0.60;99.90;;;;;;5065888;28;20059;-64
2022/12/12 04:23:58;;;;;;;15.43;8.50;;;0.60;99.90;;;;;;5056924;28;20051;-65
2022/12/12 04:26:43;;;;;;;15.35;8.32;;;0.60;99.90;;;;;;5066940;28;20440;-65
2022/12/12 04:29:23;;;;;;;15.98;7.90;;;0.50;99.90;;;;;;5064993;28;20495;-65
2022/12/12 04:32:07;;;;;;;12.77;7.15;;;0.60;99.90;;;;;;5066096;28;20024;-66
2022/12/12 04:34:56;;;;;;;12.57;7.40;;;0.60;99.90;;;;;;5076555;28;20055;-64
2022/12/12 04:37:34;;;;;;;11.15;6.13;;;0.60;99.90;;;;;;5074749;28;20040;-65
2022/12/12 04:40:04;;;;;;;11.05;6.10;;;0.60;99.90;;;;;;5069320;28;20043;-64
2022/12/12 04:42:35;;;;;;;11.90;5.93;;;0.50;99.90;;;;;;5080476;28;20024;-65
2022/12/12 04:45:10;;;;;;;14.45;7.20;;;0.50;99.90;;;;;;5073159;28;20029;-66
2022/12/12 04:47:38;;;;;;;11.93;6.68;;;0.60;99.90;;;;;;5071860;28;20021;-64
2022/12/12 04:50:07;;;;;;;14.85;7.50;;;0.60;99.90;;;;;;5064748;28;20021;-63
2022/12/12 04:52:34;;;;;;;17.00;7.53;;;0.60;99.90;;;;;;5074613;28;20017;-66
2022/12/12 04:55:07;;;;;;;14.18;8.27;;;0.60;99.90;;;;;;5072949;28;20059;-66
2022/12/12 04:57:44;;;;;;;17.45;8.43;;;0.50;99.90;;;;;;5077419;28;20476;-64
2022/12/12 05:00:12;;;;;;;13.48;8.35;;;0.60;99.90;;;;;;5061751;28;20384;-65
2022/12/12 05:03:04;;;;;;;15.57;7.80;;;0.60;99.90;;;;;;5074188;28;20021;-64
2022/12/12 05:05:35;;;;;;;14.55;7.15;;;0.50;99.90;;;;;;5080306;28;20028;-64
2022/12/12 05:08:12;;;;;;;14.45;8.07;;;0.50;99.90;;;;;;5068358;28;20036;-64
2022/12/12 05:10:45;;;;;;;14.50;8.45;;;0.50;99.90;;;;;;5065153;28;20070;-64
2022/12/12 05:13:16;;;;;;;16.23;7.78;;;0.50;99.90;;;;;;5072525;28;20034;-65
2022/12/12 05:15:43;;;;;;;14.05;8.02;;;0.50;99.90;;;;;;5070991;28;20066;-64
2022/12/12 05:18:10;;;;;;;15.32;7.70;;;0.50;99.90;;;;;;5075903;28;20529;-64
2022/12/12 05:20:36;;;;;;;15.05;8.45;;;0.60;99.90;;;;;;5073597;28;20072;-64
2022/12/12 05:23:03;;;;;;;17.02;8.35;;;0.50;99.90;;;;;;5072243;28;20080;-66
2022/12/12 05:25:29;;;;;;;12.93;7.65;;;0.60;99.90;;;;;;5067698;28;20472;-65
2022/12/12 05:27:55;;;;;;;13.52;7.13;;;0.50;99.90;;;;;;5074171;28;20024;-64
2022/12/12 05:30:21;;;;;;;13.15;7.35;;;0.50;99.90;;;;;;5072798;28;20031;-65
2022/12/12 05:32:47;;;;;;;15.98;8.10;;;0.50;99.90;;;;;;5073060;28;20028;-64
2022/12/12 05:35:13;;;;;;;14.73;8.45;;;0.50;99.90;;;;;;5068959;28;20028;-64
2022/12/12 05:37:39;;;;;;;15.65;8.45;;;0.50;99.90;;;;;;5074277;28;20082;-64
2022/12/12 05:40:07;;;;;;;13.30;6.53;;;0.50;99.90;;;;;;5077455;28;20488;-64
2022/12/12 05:42:33;;;;;;;13.13;7.43;;;0.50;99.90;;;;;;5073697;28;20028;-64
2022/12/12 05:44:59;;;;;;;12.10;6.32;;;0.50;99.90;;;;;;5067954;28;20056;-64
2022/12/12 05:47:24;;;;;;;9.52;5.72;;;0.50;99.90;;;;;;5069801;28;20107;-64
2022/12/12 05:49:50;;;;;;;10.43;6.75;;;0.50;99.90;;;;;;5076261;28;20028;-64
2022/12/12 05:52:16;;;;;;;13.38;6.88;;;0.50;99.90;;;;;;5073974;28;20040;-63
2022/12/12 05:54:42;;;;;;;14.52;7.25;;;0.50;99.90;;;;;;5070805;28;20067;-64
2022/12/12 05:57:08;;;;;;;14.05;7.43;;;0.50;99.90;;;;;;5067713;28;20046;-64
2022/12/12 05:59:34;;;;;;;11.88;7.28;;;0.50;99.90;;;;;;5066535;28;20062;-64
2022/12/12 06:02:00;;;;;;;11.50;7.03;;;0.60;99.90;;;;;;5071831;28;20035;-63
2022/12/12 06:04:26;;;;;;;10.68;6.60;;;0.60;99.90;;;;;;5069747;28;20025;-64
2022/12/12 06:06:52;;;;;;;12.25;7.28;;;0.60;99.90;;;;;;5073929;28;20057;-65
2022/12/12 06:09:17;;;;;;;13.32;7.18;;;0.60;99.90;;;;;;5070661;28;20078;-64
2022/12/12 06:11:43;;;;;;;13.27;8.13;;;0.60;99.90;;;;;;5069750;28;20570;-64
2022/12/12 06:14:09;;;;;;;14.88;8.15;;;0.60;99.90;;;;;;5068935;28;20377;-64
2022/12/12 06:16:35;;;;;;;13.85;8.30;;;0.60;99.90;;;;;;5072974;28;20028;-64
2022/12/12 06:19:01;;;;;;;17.00;9.20;;;0.60;99.90;;;;;;5074259;28;20028;-64
2022/12/12 06:21:27;;;;;;;18.38;8.73;;;0.60;99.90;;;;;;5068872;28;20475;-65
2022/12/12 06:23:53;;;;;;;15.93;8.57;;;0.60;99.90;;;;;;5079306;28;20068;-64
2022/12/12 06:26:19;;;;;;;16.00;8.65;;;0.60;99.90;;;;;;5067851;28;21631;-65
2022/12/12 06:28:46;;;;;;;14.25;8.10;;;0.60;99.90;;;;;;5077054;28;20475;-64
2022/12/12 06:31:12;;;;;;;13.07;7.60;;;0.60;99.90;;;;;;5070840;28;20024;-65
2022/12/12 06:33:39;;;;;;;18.63;9.10;;;0.60;99.90;;;;;;5070547;28;20473;-64
2022/12/12 06:36:08;;;;;;;16.50;8.93;;;0.60;99.90;;;;;;5068028;28;20026;-64
2022/12/12 06:38:34;;;;;;;16.20;9.50;;;0.70;99.90;;;;;;5070450;28;20024;-64
2022/12/12 06:41:09;;;;;;;15.30;8.82;;;0.70;99.90;;;;;;5069889;28;20040;-64
2022/12/12 06:43:35;;;;;;;17.70;9.23;;;0.60;99.90;;;;;;5073054;28;20476;-64
2022/12/12 06:46:05;;;;;;;16.50;9.00;;;0.60;99.90;;;;;;5070522;28;20028;-64
2022/12/12 06:48:32;;;;;;;15.32;8.45;;;0.60;99.90;;;;;;5074498;28;20570;-64
2022/12/12 06:50:58;;;;;;;14.57;9.23;;;0.60;99.90;;;;;;5070998;28;20514;-64
2022/12/12 06:53:25;;;;;;;17.65;9.30;;;0.60;99.90;;;;;;5068703;28;20036;-64
2022/12/12 06:55:51;;;;;;;17.05;9.88;;;0.70;99.90;;;;;;5071885;28;20062;-64
2022/12/12 06:58:16;;;;;;;13.15;8.82;;;0.70;99.90;;;;;;5064298;28;20032;-65
2022/12/12 07:00:42;;;;;;;16.08;9.50;;;0.60;99.90;;;;;;5067389;28;20044;-65
2022/12/12 07:03:11;;;;;;;15.68;8.60;;;0.70;99.90;;;;;;5064342;28;20537;-65
2022/12/12 07:05:37;;;;;;;19.17;8.73;;;0.60;99.90;;;;;;5070156;28;20035;-66
2022/12/12 07:08:03;;;;;;;19.92;9.63;;;0.70;99.90;;;;;;5068546;28;20016;-65
2022/12/12 07:10:30;;;;;;;29.63;10.43;;;0.70;99.90;;;;;;5065377;28;20476;-65
2022/12/12 07:12:56;;;;;;;19.77;10.38;;;0.70;99.90;;;;;;5070387;28;20019;-64
2022/12/12 07:15:22;;;;;;;16.30;8.35;;;0.70;99.90;;;;;;5070454;28;20422;-63
2022/12/12 07:17:52;;;;;;;19.67;9.45;;;0.60;99.90;;;;;;5069115;28;20569;-64
2022/12/12 07:20:18;;;;;;;15.95;8.60;;;0.60;99.90;;;;;;5067792;28;20440;-65
2022/12/12 07:22:44;;;;;;;15.00;9.30;;;0.60;99.90;;;;;;5068668;28;20052;-64
2022/12/12 07:25:09;;;;;;;17.80;9.43;;;0.70;99.90;;;;;;5067672;28;20123;-65
2022/12/12 07:27:35;;;;;;;14.55;8.95;;;0.70;99.90;;;;;;5069655;28;20021;-66
2022/12/12 07:30:01;;;;;;;20.75;9.45;;;0.70;99.90;;;;;;5070146;28;20103;-65
2022/12/12 07:32:27;;;;;;;19.38;11.23;;;0.90;99.90;;;;;;5073322;28;20107;-66
2022/12/12 07:34:53;;;;;;;21.70;11.82;;;0.80;99.90;;;;;;5070739;28;20012;-66
2022/12/12 07:37:18;;;;;;;17.77;11.27;;;0.90;99.90;;;;;;5065695;28;20024;-66
2022/12/12 07:39:44;;;;;;;21.00;9.50;;;0.80;99.90;;;;;;5064429;28;20067;-66
2022/12/12 07:42:10;;;;;;;16.08;8.65;;;0.70;99.90;;;;;;5068590;28;20029;-64
2022/12/12 07:44:36;;;;;;;15.68;7.45;;;0.70;99.90;;;;;;5067871;28;20051;-65
2022/12/12 07:47:02;;;;;;;16.40;8.00;;;0.60;99.90;;;;;;5069671;28;20439;-65
2022/12/12 07:49:28;;;;;;;17.17;9.02;;;0.70;99.90;;;;;;5068029;28;20123;-64
2022/12/12 07:51:54;;;;;;;66.10;24.48;;;0.70;99.90;;;;;;5070669;28;20075;-64
2022/12/12 07:54:20;;;;;;;58.38;22.52;;;0.70;99.90;;;;;;5067168;28;20487;-64
2022/12/12 07:56:46;;;;;;;19.52;10.30;;;0.70;99.90;;;;;;5063717;28;20403;-64
2022/12/12 07:59:12;;;;;;;35.97;15.30;;;0.60;99.90;;;;;;5066166;28;20526;-63
2022/12/12 08:01:38;;;;;;;17.35;9.80;;;0.60;99.90;;;;;;5070894;28;20029;-64
2022/12/12 08:04:04;;;;;;;21.02;11.57;;;0.70;99.90;;;;;;5072358;28;20024;-63
2022/12/12 08:06:30;;;;;;;23.52;8.93;;;0.70;99.90;;;;;;5070898;28;20035;-64
2022/12/12 08:08:56;;;;;;;21.35;10.30;;;0.70;99.90;;;;;;5070697;28;20115;-65
2022/12/12 08:11:24;;;;;;;18.33;9.15;;;0.80;99.90;;;;;;5069317;28;20037;-66
2022/12/12 08:13:51;;;;;;;19.05;8.93;;;0.80;99.90;;;;;;5072902;28;20031;-66
2022/12/12 08:16:20;;;;;;;17.58;9.23;;;0.80;99.90;;;;;;5070897;28;20140;-66
2022/12/12 08:18:46;;;;;;;18.50;9.20;;;0.90;99.90;;;;;;5071892;28;20029;-64
2022/12/12 08:21:14;;;;;;;12.13;7.53;;;0.80;99.90;;;;;;5071353;28;20098;-64
2022/12/12 08:23:40;;;;;;;16.20;9.25;;;0.80;99.90;;;;;;5068488;28;20078;-66
2022/12/12 08:26:12;;;;;;;14.98;7.80;;;0.80;99.90;;;;;;5071069;28;20028;-67
2022/12/12 08:28:40;;;;;;;14.77;7.88;;;0.80;99.90;;;;;;5073757;28;20025;-65
2022/12/12 08:31:09;;;;;;;13.07;7.95;;;0.80;99.90;;;;;;5075782;28;20178;-69
2022/12/12 08:33:35;;;;;;;12.60;7.40;;;0.80;99.90;;;;;;5068399;28;20025;-65
2022/12/12 08:36:13;;;;;;;14.40;8.25;;;0.80;99.90;;;;;;5072872;28;20571;-65
2022/12/12 08:38:39;;;;;;;14.32;8.23;;;0.80;99.90;;;;;;5070898;28;20013;-66
2022/12/12 08:41:08;;;;;;;14.48;8.07;;;0.80;99.90;;;;;;5070502;28;20039;-79
2022/12/12 08:43:35;;;;;;;13.13;8.32;;;0.80;99.90;;;;;;5100208;22;20475;-68
2022/12/12 08:46:02;;;;;;;14.55;9.07;;;0.80;99.90;;;;;;5047133;28;20029;-69
2022/12/12 08:48:29;;;;;;;17.77;8.95;;;0.80;99.90;;;;;;5049333;28;20037;-68
2022/12/12 08:50:55;;;;;;;14.18;8.77;;;0.90;99.90;;;;;;5053652;28;20021;-69
2022/12/12 08:53:21;;;;;;;32.10;15.68;;;1.00;99.90;;;;;;5050089;28;20046;-68
2022/12/12 08:55:50;;;;;;;15.98;8.10;;;0.90;99.90;;;;;;5051528;28;20550;-70
2022/12/12 08:58:16;;;;;;;16.00;8.75;;;0.90;99.90;;;;;;5050280;28;20444;-69
2022/12/12 09:00:42;;;;;;;18.13;9.13;;;0.90;99.90;;;;;;5049695;28;20052;-69
2022/12/12 09:03:07;;;;;;;12.77;7.55;;;0.90;99.90;;;;;;5048913;28;20037;-68
2022/12/12 09:05:34;;;;;;;17.20;7.50;;;1.00;99.90;;;;;;5051447;28;20059;-68
2022/12/12 09:07:59;;;;;;;17.27;7.82;;;1.00;99.90;;;;;;5052001;28;20463;-69
2022/12/12 09:10:26;;;;;;;12.73;7.78;;;1.00;99.90;;;;;;5048935;28;20029;-70
2022/12/12 09:12:52;;;;;;;15.05;7.97;;;1.00;99.90;;;;;;5049983;28;20059;-68
2022/12/12 09:15:19;;;;;;;14.35;8.35;;;1.00;99.90;;;;;;5049905;28;20076;-69
2022/12/12 09:17:44;;;;;;;14.65;9.27;;;1.00;99.90;;;;;;5051257;28;20151;-70
2022/12/12 09:20:10;;;;;;;14.38;8.20;;;1.00;99.90;;;;;;5048287;28;20120;-69
2022/12/12 09:22:37;;;;;;;14.40;8.07;;;1.00;99.90;;;;;;5037863;28;20033;-70
2022/12/12 09:25:04;;;;;;;14.35;8.48;;;1.10;99.90;;;;;;5050548;28;20032;-68
2022/12/12 09:27:30;;;;;;;13.88;8.02;;;1.10;99.90;;;;;;5051151;28;20503;-69
2022/12/12 09:29:55;;;;;;;15.43;8.05;;;1.10;99.90;;;;;;5051229;28;20029;-69
2022/12/12 09:32:21;;;;;;;14.23;7.90;;;1.00;99.90;;;;;;5048560;28;20400;-71
2022/12/12 09:34:47;;;;;;;15.68;8.95;;;1.10;99.90;;;;;;5051222;28;20023;-72
2022/12/12 09:37:13;;;;;;;16.45;8.38;;;1.00;99.90;;;;;;5049129;28;20068;-72
2022/12/12 09:39:39;;;;;;;13.88;8.05;;;1.00;99.90;;;;;;5053917;28;20117;-71
2022/12/12 09:42:38;;;;;;;18.38;10.15;;;1.00;99.90;;;;;;5047591;28;20494;-70
2022/12/12 09:45:06;;;;;;;90.45;45.88;;;1.10;99.90;;;;;;5042201;28;20033;-70
2022/12/12 09:47:38;;;;;;;61.15;32.17;;;1.00;99.90;;;;;;5049437;28;20361;-71
2022/12/12 09:50:17;;;;;;;19.40;10.75;;;0.90;99.90;;;;;;5050973;28;20035;-72
2022/12/12 09:52:43;;;;;;;65.00;20.50;;;0.90;99.90;;;;;;5048597;28;20635;-70
2022/12/12 09:55:20;;;;;;;124.82;42.88;;;1.00;99.90;;;;;;5049167;28;20021;-71
2022/12/12 09:58:22;;;;;;;38.72;18.27;;;1.10;99.90;;;;;;5044273;28;20025;-71
2022/12/12 10:01:14;;;;;;;23.60;13.23;;;1.20;99.90;;;;;;5028497;28;20049;-71
2022/12/12 10:03:48;;;;;;;18.95;9.43;;;1.20;99.90;;;;;;5020970;28;20283;-73
2022/12/12 10:06:16;;;;;;;15.93;10.27;;;1.20;99.90;;;;;;5024597;28;20037;-71
2022/12/12 10:08:53;;;;;;;12.43;7.30;;;1.20;99.90;;;;;;5027977;28;20096;-72
2022/12/12 10:14:13;;;;;;;10.95;7.18;;;1.20;99.90;;;;;;5022899;28;20208;-72
2022/12/12 10:16:39;;;;;;;12.75;7.03;;;1.20;99.90;;;;;;5017106;28;20481;-73
2022/12/12 10:19:21;;;;;;;14.23;7.25;;;1.20;99.90;;;;;;5016301;28;20164;-71
2022/12/12 10:21:49;;;;;;;15.25;8.68;;;1.30;99.90;;;;;;5026206;28;20045;-71
2022/12/12 10:25:06;;;;;;;13.88;8.45;;;1.40;99.90;;;;;;5026012;28;20060;-71
2022/12/12 10:27:32;;;;;;;15.05;9.05;;;1.30;99.90;;;;;;4992180;28;20492;-72
2022/12/12 10:30:06;;;;;;;15.63;9.18;;;1.40;99.90;;;;;;5010053;28;20045;-73
2022/12/12 10:32:56;;;;;;;13.57;8.20;;;1.50;99.90;;;;;;5018557;28;20424;-72
2022/12/12 10:35:38;;;;;;;15.05;8.82;;;1.60;99.90;;;;;;5024611;28;20034;-72
2022/12/12 10:38:34;;;;;;;11.50;6.72;;;1.60;99.90;;;;;;5041452;28;20052;-73
2022/12/12 10:41:15;;;;;;;13.35;8.18;;;1.40;99.90;;;;;;5045770;28;20040;-71
2022/12/12 10:44:31;;;;;;;12.07;7.00;;;1.50;99.90;;;;;;5047459;28;20460;-72
2022/12/12 10:47:02;;;;;;;11.57;7.68;;;1.70;99.90;;;;;;5034035;28;20408;-72
2022/12/12 10:49:29;;;;;;;9.02;5.60;;;1.80;99.90;;;;;;5042152;28;20026;-72
2022/12/12 10:51:56;;;;;;;13.88;8.13;;;1.90;99.90;;;;;;5043171;28;20126;-72
2022/12/12 10:54:26;;;;;;;11.57;7.72;;;1.90;99.90;;;;;;5046676;28;20407;-72
2022/12/12 10:57:19;;;;;;;14.93;8.23;;;2.00;99.90;;;;;;5049650;28;20531;-71
2022/12/12 10:59:50;;;;;;;12.90;8.10;;;2.00;99.90;;;;;;5047578;28;20127;-72
2022/12/12 11:02:38;;;;;;;12.77;8.30;;;2.00;99.90;;;;;;5046663;28;20395;-75
2022/12/12 11:05:19;;;;;;;13.68;8.00;;;1.90;99.90;;;;;;5039124;28;20472;-72
2022/12/12 11:08:04;;;;;;;11.63;8.05;;;2.00;99.90;;;;;;5046421;28;20119;-72
2022/12/12 11:10:30;;;;;;;13.05;7.70;;;2.00;99.90;;;;;;5047110;28;20033;-72
2022/12/12 11:12:58;;;;;;;11.77;7.78;;;1.80;99.90;;;;;;5048958;28;20033;-71
2022/12/12 11:15:35;;;;;;;12.07;7.80;;;1.90;99.90;;;;;;5046459;28;20108;-72
2022/12/12 11:18:01;;;;;;;11.38;7.50;;;1.90;99.90;;;;;;5043884;28;20032;-72
2022/12/12 11:20:27;;;;;;;12.30;6.88;;;2.00;99.90;;;;;;5040972;28;20033;-73
2022/12/12 11:22:55;;;;;;;13.18;7.75;;;2.00;99.90;;;;;;5046929;28;20390;-72
2022/12/12 11:25:39;;;;;;;13.35;8.60;;;2.10;99.90;;;;;;5038817;28;20043;-72
2022/12/12 11:28:05;;;;;;;14.48;8.70;;;2.20;99.90;;;;;;5040722;28;20017;-72
2022/12/12 11:30:37;;;;;;;15.82;8.65;;;2.10;99.90;;;;;;5039621;28;20416;-73
2022/12/12 11:33:06;;;;;;;;;;;2.10;99.90;;;;;;5039875;28;20025;-71
2022/12/12 11:35:35;;;;;;;14.60;8.05;;;2.00;99.90;;;;;;5047380;28;19909;-72
2022/12/12 11:38:16;;;;;;;10.98;7.88;;;2.10;99.90;;;;;;5047385;28;20035;-72
2022/12/12 11:40:43;;;;;;;15.27;9.00;;;2.10;99.90;;;;;;5050004;28;20123;-72
2022/12/12 11:43:21;;;;;;;15.02;8.75;;;2.10;99.90;;;;;;5045178;28;20028;-72
2022/12/12 11:46:12;;;;;;;13.85;8.98;;;2.10;99.90;;;;;;5046995;28;20058;-72
2022/12/12 11:48:38;;;;;;;13.88;9.05;;;2.10;99.90;;;;;;5048390;28;20017;-71
2022/12/12 11:51:04;;;;;;;14.48;8.68;;;2.00;99.90;;;;;;5045452;28;20139;-73
2022/12/12 11:53:34;;;;;;;12.50;8.48;;;1.90;99.90;;;;;;5048733;28;20033;-72
2022/12/12 11:56:17;;;;;;;16.45;9.88;;;1.90;99.90;;;;;;5047530;28;20047;-72
2022/12/12 11:59:09;;;;;;;15.95;9.15;;;1.90;99.90;;;;;;5047905;28;20115;-70
2022/12/12 12:01:56;;;;;;;15.90;9.23;;;1.90;99.90;;;;;;5048308;28;20553;-72
2022/12/12 12:04:48;;;;;;;20.30;10.05;;;1.80;99.90;;;;;;5040433;28;20079;-71
2022/12/12 12:07:23;;;;;;;16.20;8.77;;;1.90;99.90;;;;;;5031175;28;20041;-72
2022/12/12 12:10:01;;;;;;;16.20;9.75;;;1.90;99.90;;;;;;5045542;28;20112;-73
2022/12/12 12:12:51;;;;;;;19.40;10.00;;;1.90;99.90;;;;;;5037076;28;20068;-72
2022/12/12 12:15:25;;;;;;;17.98;9.88;;;1.80;99.90;;;;;;5039155;28;20111;-72
2022/12/12 12:18:04;;;;;;;16.38;9.52;;;1.70;99.90;;;;;;5047710;28;20388;-72
2022/12/12 12:21:06;;;;;;;17.42;10.27;;;1.70;99.90;;;;;;5046377;28;20123;-71
2022/12/12 12:24:14;;;;;;;13.45;7.30;;;1.60;99.90;;;;;;5047334;28;20094;-70
2022/12/12 12:27:00;;;;;;;22.38;10.90;;;1.60;99.90;;;;;;5044760;28;20551;-72
2022/12/12 12:30:01;;;;;;;17.63;10.50;;;1.60;99.90;;;;;;5041970;28;20029;-70
2022/12/12 12:32:48;;;;;;;16.90;9.88;;;1.60;99.90;;;;;;5041860;28;20040;-70
2022/12/12 12:35:24;;;;;;;19.80;12.00;;;1.50;99.90;;;;;;5043714;28;20420;-70
2022/12/12 12:38:17;;;;;;;19.98;10.88;;;1.50;99.90;;;;;;5042887;28;20025;-71
2022/12/12 12:40:55;;;;;;;19.77;10.93;;;1.50;99.90;;;;;;5045283;28;20060;-71
2022/12/12 12:43:26;;;;;;;20.42;11.07;;;1.50;99.90;;;;;;5040970;28;20033;-72
2022/12/12 12:45:59;;;;;;;17.65;11.32;;;1.50;99.90;;;;;;5046031;28;20508;-71
2022/12/12 12:48:45;;;;;;;22.67;11.15;;;1.50;99.90;;;;;;5042275;28;20104;-72
2022/12/12 12:51:33;;;;;;;19.58;10.90;;;1.40;99.90;;;;;;5039524;28;20059;-73
2022/12/12 12:54:29;;;;;;;17.77;10.43;;;1.50;99.90;;;;;;5052407;28;20083;-71
2022/12/12 12:57:01;;;;;;;20.73;10.73;;;1.50;99.90;;;;;;5047208;28;20043;-71
2022/12/12 12:59:42;;;;;;;17.27;10.25;;;1.40;99.90;;;;;;5046913;28;20029;-71
2022/12/12 13:02:21;;;;;;;21.08;12.15;;;1.40;99.90;;;;;;5050824;28;20021;-70
2022/12/12 13:05:05;;;;;;;24.70;11.75;;;1.30;99.90;;;;;;5048428;28;20386;-70
2022/12/12 13:07:51;;;;;;;23.00;12.05;;;1.40;99.90;;;;;;5046684;28;20412;-71
2022/12/12 13:10:22;;;;;;;22.85;12.68;;;1.40;99.90;;;;;;5051496;28;20507;-70
2022/12/12 13:13:17;;;;;;;24.17;12.63;;;1.40;99.90;;;;;;5059383;28;20483;-71
2022/12/12 13:16:04;;;;;;;25.25;11.95;;;1.40;99.90;;;;;;5051642;28;20372;-70
2022/12/12 13:18:31;;;;;;;26.38;14.05;;;1.40;99.90;;;;;;5060155;28;20095;-70
2022/12/12 13:21:06;;;;;;;26.25;13.43;;;1.40;99.90;;;;;;5044209;28;20488;-71
2022/12/12 13:23:40;;;;;;;31.65;15.18;;;1.30;99.90;;;;;;5051638;28;20072;-71
2022/12/12 13:26:22;;;;;;;24.45;13.65;;;1.40;99.90;;;;;;5053395;28;20025;-71